createdAt,value
2023-02-16T00:00:48.135Z,3.51
2023-02-16T00:01:48.156Z,3.62
2023-02-16T00:02:48.246Z,3.68
2023-02-16T00:03:48.264Z,3.48
2023-02-16T00:04:48.206Z,3.58
2023-02-16T00:05:48.225Z,3.58
2023-02-16T00:06:48.243Z,3.58
2023-02-16T00:07:48.259Z,3.61
2023-02-16T00:08:48.295Z,3.52
2023-02-16T00:09:48.299Z,3.47
2023-02-16T00:10:48.316Z,3.55
2023-02-16T00:11:48.336Z,3.45
2023-02-16T00:12:48.352Z,3.58
2023-02-16T00:13:48.371Z,3.55
2023-02-16T00:14:48.389Z,3.52
2023-02-16T00:15:48.464Z,3.52
2023-02-16T00:16:48.435Z,3.57
2023-02-16T00:17:48.444Z,3.52
2023-02-16T00:18:48.454Z,3.45
2023-02-16T00:19:48.472Z,3.52
2023-02-16T00:20:48.499Z,3.48
2023-02-16T00:21:48.512Z,3.48
2023-02-16T00:22:48.529Z,3.42
2023-02-16T00:23:48.558Z,3.43
2023-02-16T00:24:48.563Z,3.43
2023-02-16T00:25:48.581Z,3.39
2023-02-16T00:26:48.604Z,3.29
2023-02-16T00:27:48.623Z,3.24
2023-02-16T00:28:48.644Z,3.23
2023-02-16T00:29:48.650Z,3.26
2023-02-16T00:30:48.766Z,3.28
2023-02-16T00:31:48.829Z,3.14
2023-02-16T00:32:48.708Z,3.15
2023-02-16T00:33:48.737Z,3.15
2023-02-16T00:34:48.739Z,3.15
2023-02-16T00:35:48.767Z,3.15
2023-02-16T00:36:48.777Z,3.17
2023-02-16T00:37:48.808Z,3.18
2023-02-16T00:38:48.816Z,3.11
2023-02-16T00:39:48.836Z,3.18
2023-02-16T00:40:48.849Z,3.10
2023-02-16T00:41:48.868Z,3.10
2023-02-16T00:42:48.893Z,3.11
2023-02-16T00:43:48.903Z,3.13
2023-02-16T00:44:48.927Z,3.18
2023-02-16T00:45:48.952Z,3.05
2023-02-16T00:46:48.954Z,3.03
2023-02-16T00:47:48.970Z,3.14
2023-02-16T00:48:48.991Z,3.10
2023-02-16T00:49:49.025Z,3.10
2023-02-16T00:50:49.033Z,3.13
2023-02-16T00:51:49.045Z,3.08
2023-02-16T00:52:49.062Z,3.00
2023-02-16T00:53:49.074Z,3.10
2023-02-16T00:54:49.095Z,3.03
2023-02-16T00:55:49.121Z,3.03
2023-02-16T00:56:49.136Z,3.06
2023-02-16T00:57:49.144Z,3.05
2023-02-16T00:58:49.165Z,3.00
2023-02-16T00:59:49.193Z,3.00
2023-02-16T01:00:49.201Z,3.02
2023-02-16T01:01:49.267Z,2.97
2023-02-16T01:02:49.232Z,2.97
2023-02-16T01:03:49.248Z,2.92
2023-02-16T01:04:49.320Z,2.95
2023-02-16T01:05:49.285Z,2.93
2023-02-16T01:06:49.301Z,2.93
2023-02-16T01:07:49.333Z,2.97
2023-02-16T01:08:49.335Z,2.97
2023-02-16T01:09:49.350Z,2.96
2023-02-16T01:10:49.368Z,2.90
2023-02-16T01:11:49.383Z,2.85
2023-02-16T01:12:49.402Z,2.81
2023-02-16T01:13:49.420Z,2.89
2023-02-16T01:14:49.440Z,2.82
2023-02-16T01:15:49.573Z,2.79
2023-02-16T01:16:49.475Z,2.82
2023-02-16T01:17:49.497Z,2.84
2023-02-16T01:18:49.504Z,2.77
2023-02-16T01:19:49.520Z,2.75
2023-02-16T01:20:49.569Z,2.77
2023-02-16T01:21:49.552Z,2.75
2023-02-16T01:22:49.571Z,2.78
2023-02-16T01:23:49.603Z,2.79
2023-02-16T01:24:49.609Z,2.81
2023-02-16T01:25:49.624Z,2.79
2023-02-16T01:26:49.639Z,2.75
2023-02-16T01:27:49.659Z,2.77
2023-02-16T01:28:49.698Z,2.82
2023-02-16T01:29:49.691Z,2.81
2023-02-16T01:30:49.764Z,2.81
2023-02-16T01:31:49.834Z,2.77
2023-02-16T01:32:49.742Z,2.66
2023-02-16T01:33:49.757Z,2.71
2023-02-16T01:34:49.780Z,2.71
2023-02-16T01:35:49.794Z,2.71
2023-02-16T01:36:49.857Z,2.61
2023-02-16T01:37:49.832Z,2.66
2023-02-16T01:38:49.848Z,2.63
2023-02-16T01:39:49.862Z,2.63
2023-02-16T01:40:49.877Z,2.64
2023-02-16T01:41:49.900Z,2.54
2023-02-16T01:42:49.920Z,2.52
2023-02-16T01:43:49.929Z,2.53
2023-02-16T01:44:49.961Z,2.46
2023-02-16T01:45:49.963Z,2.49
2023-02-16T01:46:50.003Z,2.59
2023-02-16T01:47:49.992Z,2.52
2023-02-16T01:48:50.027Z,2.52
2023-02-16T01:49:50.036Z,2.45
2023-02-16T01:50:51.043Z,2.48
2023-02-16T01:51:50.067Z,2.49
2023-02-16T01:52:50.093Z,2.52
2023-02-16T01:53:50.100Z,2.49
2023-02-16T01:54:50.115Z,2.48
2023-02-16T01:55:50.137Z,2.46
2023-02-16T01:56:50.150Z,2.53
2023-02-16T01:57:50.174Z,2.45
2023-02-16T01:58:50.187Z,2.41
2023-02-16T01:59:50.199Z,2.36
2023-02-16T02:00:50.220Z,2.42
2023-02-16T02:01:50.267Z,2.42
2023-02-16T02:02:50.292Z,2.45
2023-02-16T02:03:50.272Z,2.48
2023-02-16T02:04:50.302Z,2.43
2023-02-16T02:05:50.311Z,2.42
2023-02-16T02:06:50.321Z,2.41
2023-02-16T02:07:50.344Z,2.46
2023-02-16T02:08:50.362Z,2.45
2023-02-16T02:09:50.368Z,2.38
2023-02-16T02:10:50.388Z,2.35
2023-02-16T02:11:50.406Z,2.34
2023-02-16T02:12:50.455Z,2.35
2023-02-16T02:13:50.436Z,2.31
2023-02-16T02:14:50.455Z,2.34
2023-02-16T02:15:50.487Z,2.34
2023-02-16T02:16:50.488Z,2.24
2023-02-16T02:17:50.506Z,2.25
2023-02-16T02:18:50.520Z,2.27
2023-02-16T02:19:50.569Z,2.25
2023-02-16T02:20:50.602Z,2.23
2023-02-16T02:21:50.583Z,2.21
2023-02-16T02:22:50.585Z,2.28
2023-02-16T02:23:50.611Z,2.28
2023-02-16T02:24:50.620Z,2.16
2023-02-16T02:25:50.650Z,2.18
2023-02-16T02:26:50.652Z,2.03
2023-02-16T02:27:50.673Z,2.18
2023-02-16T02:28:50.688Z,2.12
2023-02-16T02:29:50.718Z,2.12
2023-02-16T02:30:50.762Z,2.16
2023-02-16T02:31:50.850Z,2.03
2023-02-16T02:32:50.755Z,2.10
2023-02-16T02:33:50.770Z,2.03
2023-02-16T02:34:50.792Z,2.00
2023-02-16T02:35:50.822Z,2.09
2023-02-16T02:36:50.832Z,1.99
2023-02-16T02:37:50.839Z,2.05
2023-02-16T02:38:50.857Z,2.05
2023-02-16T02:39:50.890Z,2.02
2023-02-16T02:40:50.890Z,1.99
2023-02-16T02:41:50.903Z,2.05
2023-02-16T02:42:50.921Z,1.95
2023-02-16T02:43:50.946Z,2.09
2023-02-16T02:44:50.959Z,2.12
2023-02-16T02:45:50.968Z,2.14
2023-02-16T02:46:51.045Z,2.12
2023-02-16T02:47:51.006Z,2.18
2023-02-16T02:48:51.022Z,2.16
2023-02-16T02:49:51.036Z,2.18
2023-02-16T02:50:51.058Z,2.16
2023-02-16T02:51:51.078Z,2.18
2023-02-16T02:52:51.088Z,2.09
2023-02-16T02:53:51.106Z,2.09
2023-02-16T02:54:51.122Z,2.00
2023-02-16T02:55:51.162Z,1.93
2023-02-16T02:56:51.156Z,1.90
2023-02-16T02:57:51.168Z,1.93
2023-02-16T02:58:51.190Z,1.77
2023-02-16T02:59:51.202Z,1.81
2023-02-16T03:00:51.285Z,1.86
2023-02-16T03:01:51.272Z,1.79
2023-02-16T03:02:51.267Z,1.80
2023-02-16T03:03:51.265Z,1.72
2023-02-16T03:04:51.284Z,1.62
2023-02-16T03:05:51.301Z,1.69
2023-02-16T03:06:51.317Z,1.76
2023-02-16T03:07:51.334Z,1.76
2023-02-16T03:08:51.359Z,1.68
2023-02-16T03:09:51.368Z,1.77
2023-02-16T03:10:51.385Z,1.83
2023-02-16T03:11:51.407Z,1.76
2023-02-16T03:12:51.428Z,1.62
2023-02-16T03:13:51.468Z,1.70
2023-02-16T03:14:51.450Z,1.62
2023-02-16T03:15:51.474Z,1.73
2023-02-16T03:16:51.482Z,1.66
2023-02-16T03:17:51.499Z,1.62
2023-02-16T03:18:51.517Z,1.66
2023-02-16T03:19:51.531Z,1.59
2023-02-16T03:20:51.555Z,1.58
2023-02-16T03:21:51.583Z,1.54
2023-02-16T03:22:51.584Z,1.50
2023-02-16T03:23:51.596Z,1.48
2023-02-16T03:24:51.614Z,1.51
2023-02-16T03:25:51.634Z,1.59
2023-02-16T03:26:51.656Z,1.54
2023-02-16T03:27:51.676Z,1.54
2023-02-16T03:28:51.678Z,1.69
2023-02-16T03:29:51.754Z,1.65
2023-02-16T03:30:51.726Z,1.63
2023-02-16T03:31:51.770Z,1.55
2023-02-16T03:32:51.743Z,1.60
2023-02-16T03:33:51.771Z,1.72
2023-02-16T03:34:51.772Z,1.68
2023-02-16T03:35:51.783Z,1.69
2023-02-16T03:36:51.806Z,1.65
2023-02-16T03:37:51.821Z,1.66
2023-02-16T03:38:51.842Z,1.63
2023-02-16T03:39:51.854Z,1.63
2023-02-16T03:40:51.881Z,1.68
2023-02-16T03:41:51.888Z,1.60
2023-02-16T03:42:51.904Z,1.69
2023-02-16T03:43:51.921Z,1.65
2023-02-16T03:44:51.944Z,1.55
2023-02-16T03:45:52.010Z,1.58
2023-02-16T03:46:52.024Z,1.55
2023-02-16T03:47:51.985Z,1.54
2023-02-16T03:48:52.016Z,1.50
2023-02-16T03:49:52.014Z,1.54
2023-02-16T03:50:52.034Z,1.47
2023-02-16T03:51:52.048Z,1.41
2023-02-16T03:52:52.066Z,1.50
2023-02-16T03:53:52.080Z,1.44
2023-02-16T03:54:52.111Z,1.55
2023-02-16T03:55:52.124Z,1.65
2023-02-16T03:56:52.134Z,1.63
2023-02-16T03:57:52.154Z,1.66
2023-02-16T03:58:52.195Z,1.68
2023-02-16T03:59:52.180Z,1.69
2023-02-16T04:00:52.209Z,1.69
2023-02-16T04:01:52.251Z,1.68
2023-02-16T04:02:52.225Z,1.62
2023-02-16T04:03:52.325Z,1.60
2023-02-16T04:04:52.270Z,1.62
2023-02-16T04:05:52.280Z,1.63
2023-02-16T04:06:52.296Z,1.52
2023-02-16T04:07:52.328Z,1.52
2023-02-16T04:08:52.336Z,1.58
2023-02-16T04:09:52.344Z,1.60
2023-02-16T04:10:52.366Z,1.52
2023-02-16T04:11:52.380Z,1.51
2023-02-16T04:12:52.406Z,1.51
2023-02-16T04:13:52.410Z,1.55
2023-02-16T04:14:52.455Z,1.44
2023-02-16T04:15:52.445Z,1.52
2023-02-16T04:16:52.563Z,1.52
2023-02-16T04:17:52.472Z,1.45
2023-02-16T04:18:52.530Z,1.48
2023-02-16T04:19:52.522Z,1.40
2023-02-16T04:20:52.527Z,1.41
2023-02-16T04:21:52.540Z,1.41
2023-02-16T04:22:52.578Z,1.50
2023-02-16T04:23:52.569Z,1.50
2023-02-16T04:24:52.594Z,1.51
2023-02-16T04:25:52.611Z,1.52
2023-02-16T04:26:52.686Z,1.58
2023-02-16T04:27:52.652Z,1.59
2023-02-16T04:28:52.649Z,1.63
2023-02-16T04:29:52.719Z,1.65
2023-02-16T04:30:52.733Z,1.63
2023-02-16T04:31:52.870Z,1.54
2023-02-16T04:32:52.715Z,1.70
2023-02-16T04:33:52.730Z,1.68
2023-02-16T04:34:52.748Z,1.70
2023-02-16T04:35:52.759Z,1.68
2023-02-16T04:36:52.781Z,1.70
2023-02-16T04:37:52.803Z,1.68
2023-02-16T04:38:52.809Z,1.66
2023-02-16T04:39:52.844Z,1.65
2023-02-16T04:40:52.846Z,1.63
2023-02-16T04:41:52.853Z,1.63
2023-02-16T04:42:52.873Z,1.73
2023-02-16T04:43:52.892Z,1.58
2023-02-16T04:44:52.916Z,1.65
2023-02-16T04:45:52.959Z,1.68
2023-02-16T04:46:52.935Z,1.65
2023-02-16T04:47:52.957Z,1.66
2023-02-16T04:48:52.970Z,1.68
2023-02-16T04:49:53.007Z,1.62
2023-02-16T04:50:53.018Z,1.60
2023-02-16T04:51:53.020Z,1.65
2023-02-16T04:52:53.039Z,1.66
2023-02-16T04:53:53.049Z,1.65
2023-02-16T04:54:53.066Z,1.62
2023-02-16T04:55:53.081Z,1.55
2023-02-16T04:56:53.142Z,1.62
2023-02-16T04:57:53.130Z,1.70
2023-02-16T04:58:53.128Z,1.59
2023-02-16T04:59:53.153Z,1.66
2023-02-16T05:00:53.174Z,1.68
2023-02-16T05:01:53.314Z,1.68
2023-02-16T05:02:53.194Z,1.79
2023-02-16T05:03:53.210Z,1.62
2023-02-16T05:04:53.301Z,1.59
2023-02-16T05:05:53.242Z,1.76
2023-02-16T05:06:53.267Z,1.68
2023-02-16T05:07:53.281Z,1.63
2023-02-16T05:08:53.291Z,1.65
2023-02-16T05:09:53.311Z,1.55
2023-02-16T05:10:53.322Z,1.51
2023-02-16T05:11:53.357Z,1.48
2023-02-16T05:12:53.350Z,1.44
2023-02-16T05:13:53.378Z,1.47
2023-02-16T05:14:53.397Z,1.48
2023-02-16T05:15:53.431Z,1.34
2023-02-16T05:16:53.416Z,1.40
2023-02-16T05:17:53.457Z,1.42
2023-02-16T05:18:53.456Z,1.42
2023-02-16T05:19:53.495Z,1.37
2023-02-16T05:20:53.496Z,1.37
2023-02-16T05:21:53.497Z,1.36
2023-02-16T05:22:53.514Z,1.45
2023-02-16T05:23:53.537Z,1.52
2023-02-16T05:24:53.548Z,1.47
2023-02-16T05:25:53.561Z,1.50
2023-02-16T05:26:53.580Z,1.50
2023-02-16T05:27:53.614Z,1.48
2023-02-16T05:28:53.616Z,1.50
2023-02-16T05:29:53.701Z,1.59
2023-02-16T05:30:53.687Z,1.58
2023-02-16T05:31:53.740Z,1.62
2023-02-16T05:32:53.674Z,1.70
2023-02-16T05:33:53.692Z,1.69
2023-02-16T05:34:53.710Z,1.69
2023-02-16T05:35:53.741Z,1.66
2023-02-16T05:36:53.758Z,1.59
2023-02-16T05:37:53.758Z,1.60
2023-02-16T05:38:53.776Z,1.58
2023-02-16T05:39:53.801Z,1.60
2023-02-16T05:40:53.813Z,1.52
2023-02-16T05:41:53.855Z,1.62
2023-02-16T05:42:53.835Z,1.63
2023-02-16T05:43:53.857Z,1.60
2023-02-16T05:44:53.875Z,1.54
2023-02-16T05:45:53.931Z,1.65
2023-02-16T05:46:53.905Z,1.62
2023-02-16T05:47:53.924Z,1.60
2023-02-16T05:48:53.940Z,1.70
2023-02-16T05:49:53.952Z,1.69
2023-02-16T05:50:53.969Z,1.70
2023-02-16T05:51:54.035Z,1.65
2023-02-16T05:52:54.000Z,1.69
2023-02-16T05:53:54.020Z,1.68
2023-02-16T05:54:54.046Z,1.63
2023-02-16T05:55:54.060Z,1.69
2023-02-16T05:56:54.089Z,1.54
2023-02-16T05:57:54.092Z,1.68
2023-02-16T05:58:54.108Z,1.62
2023-02-16T05:59:54.119Z,1.62
2023-02-16T06:00:54.138Z,1.60
2023-02-16T06:01:54.164Z,1.63
2023-02-16T06:02:54.237Z,1.66
2023-02-16T06:03:54.263Z,1.65
2023-02-16T06:04:54.215Z,1.68
2023-02-16T06:05:54.214Z,1.68
2023-02-16T06:06:54.236Z,1.68
2023-02-16T06:07:54.252Z,1.66
2023-02-16T06:08:54.281Z,1.68
2023-02-16T06:09:54.280Z,1.73
2023-02-16T06:10:54.298Z,1.80
2023-02-16T06:11:54.312Z,1.84
2023-02-16T06:12:54.334Z,1.90
2023-02-16T06:13:54.348Z,1.80
2023-02-16T06:14:54.360Z,1.80
2023-02-16T06:15:54.402Z,1.80
2023-02-16T06:16:54.391Z,1.87
2023-02-16T06:17:54.406Z,1.91
2023-02-16T06:19:01.587Z,1.86
2023-02-16T06:20:58.904Z,2.07
2023-02-16T06:21:58.419Z,2.00
2023-02-16T06:24:02.424Z,2.03
2023-02-16T06:25:02.420Z,1.99
2023-02-16T06:27:06.895Z,1.91
2023-02-16T06:28:06.419Z,1.90
2023-02-16T06:29:59.527Z,1.91
2023-02-16T06:30:59.461Z,1.91
2023-02-16T06:33:03.924Z,1.90
2023-02-16T06:34:03.458Z,1.95
2023-02-16T06:36:07.460Z,1.90
2023-02-16T06:37:07.463Z,1.88
2023-02-16T06:39:11.966Z,1.99
2023-02-16T06:40:11.473Z,1.93
2023-02-16T06:42:15.470Z,1.98
2023-02-16T06:43:15.476Z,1.90
2023-02-16T06:45:19.961Z,1.93
2023-02-16T06:46:19.514Z,1.99
2023-02-16T06:48:23.490Z,2.00
2023-02-16T06:49:25.423Z,2.03
2023-02-16T06:51:27.962Z,1.91
2023-02-16T06:52:27.513Z,1.90
2023-02-16T06:54:31.564Z,1.91
2023-02-16T06:55:31.500Z,1.87
2023-02-16T06:57:35.979Z,1.87
2023-02-16T06:58:35.507Z,1.91
2023-02-16T07:00:39.596Z,1.99
2023-02-16T07:01:39.512Z,2.10
2023-02-16T07:03:44.004Z,2.18
2023-02-16T07:04:43.509Z,2.25
2023-02-16T07:06:47.512Z,2.41
2023-02-16T07:07:47.511Z,2.41
2023-02-16T07:09:40.992Z,2.43
2023-02-16T07:10:49.790Z,2.52
2023-02-16T07:12:44.443Z,2.52
2023-02-16T07:13:44.456Z,2.45
2023-02-16T07:15:48.935Z,2.53
2023-02-16T07:16:48.550Z,2.57
2023-02-16T07:18:52.460Z,2.74
2023-02-16T07:19:52.464Z,2.75
2023-02-16T07:21:56.945Z,2.77
2023-02-16T07:22:56.503Z,2.89
2023-02-16T07:25:01.130Z,2.92
2023-02-16T07:26:00.495Z,3.05
2023-02-16T07:27:00.502Z,3.11
2023-02-16T07:28:00.520Z,3.20
2023-02-16T07:29:00.536Z,3.14
2023-02-16T07:30:00.714Z,3.14
2023-02-16T07:31:00.604Z,3.13
2023-02-16T07:32:00.752Z,3.10
2023-02-16T07:33:00.609Z,3.14
2023-02-16T07:34:00.630Z,3.11
2023-02-16T07:35:00.639Z,3.13
2023-02-16T07:36:00.661Z,3.13
2023-02-16T07:37:00.673Z,3.29
2023-02-16T07:38:00.690Z,3.28
2023-02-16T07:39:00.709Z,3.31
2023-02-16T07:40:00.724Z,3.43
2023-02-16T07:41:00.752Z,3.57
2023-02-16T07:42:00.787Z,3.50
2023-02-16T07:43:00.777Z,3.58
2023-02-16T07:44:00.796Z,3.58
2023-02-16T07:45:00.817Z,3.76
2023-02-16T07:46:00.896Z,3.68
2023-02-16T07:47:00.848Z,3.80
2023-02-16T07:48:00.879Z,3.86
2023-02-16T07:49:00.895Z,3.86
2023-02-16T07:50:00.900Z,3.75
2023-02-16T07:51:00.918Z,3.80
2023-02-16T07:52:00.938Z,3.83
2023-02-16T07:53:00.955Z,3.78
2023-02-16T07:54:00.972Z,3.73
2023-02-16T07:55:00.988Z,3.76
2023-02-16T07:56:01.007Z,3.58
2023-02-16T07:57:01.039Z,3.66
2023-02-16T07:58:01.042Z,3.78
2023-02-16T07:59:01.056Z,3.79
2023-02-16T08:00:01.086Z,3.87
2023-02-16T08:01:01.098Z,3.86
2023-02-16T08:02:01.221Z,3.97
2023-02-16T08:03:01.270Z,4.00
2023-02-16T08:04:01.147Z,4.06
2023-02-16T08:05:01.168Z,4.11
2023-02-16T08:06:01.209Z,4.09
2023-02-16T08:07:01.202Z,4.12
2023-02-16T08:08:01.222Z,4.15
2023-02-16T08:09:01.248Z,4.27
2023-02-16T08:10:01.258Z,4.27
2023-02-16T08:11:01.277Z,4.32
2023-02-16T08:12:01.305Z,4.40
2023-02-16T08:13:01.311Z,4.41
2023-02-16T08:14:01.331Z,4.45
2023-02-16T08:15:01.351Z,4.54
2023-02-16T08:16:01.405Z,4.58
2023-02-16T08:17:01.477Z,4.65
2023-02-16T08:18:01.404Z,4.60
2023-02-16T08:19:01.436Z,4.60
2023-02-16T08:20:01.444Z,4.73
2023-02-16T08:21:04.561Z,4.73
2023-02-16T08:22:01.551Z,4.70
2023-02-16T08:23:01.509Z,4.69
2023-02-16T08:24:01.531Z,4.70
2023-02-16T08:25:01.557Z,4.60
2023-02-16T08:26:01.828Z,4.63
2023-02-16T08:27:01.753Z,4.75
2023-02-16T08:28:01.589Z,4.80
2023-02-16T08:29:01.613Z,4.80
2023-02-16T08:30:01.665Z,4.85
2023-02-16T08:31:01.658Z,4.85
2023-02-16T08:32:01.687Z,4.88
2023-02-16T08:33:01.683Z,4.91
2023-02-16T08:34:01.703Z,4.99
2023-02-16T08:35:01.735Z,5.04
2023-02-16T08:36:01.995Z,5.07
2023-02-16T08:37:01.758Z,5.09
2023-02-16T08:38:01.778Z,5.12
2023-02-16T08:39:01.798Z,5.09
2023-02-16T08:40:01.819Z,5.18
2023-02-16T08:41:01.833Z,5.20
2023-02-16T08:42:01.996Z,5.24
2023-02-16T08:43:01.876Z,5.38
2023-02-16T08:44:01.898Z,5.48
2023-02-16T08:45:01.909Z,5.60
2023-02-16T08:46:02.012Z,5.72
2023-02-16T08:47:01.950Z,5.81
2023-02-16T08:48:01.963Z,5.85
2023-02-16T08:49:01.988Z,5.91
2023-02-16T08:50:02.004Z,5.99
2023-02-16T08:51:02.020Z,6.11
2023-02-16T08:52:02.041Z,6.18
2023-02-16T08:53:02.061Z,6.18
2023-02-16T08:54:03.762Z,6.33
2023-02-16T08:55:02.099Z,6.36
2023-02-16T08:56:02.516Z,6.48
2023-02-16T08:57:02.151Z,6.51
2023-02-16T08:58:02.175Z,6.51
2023-02-16T08:59:02.177Z,6.48
2023-02-16T09:00:02.196Z,6.61
2023-02-16T09:01:02.263Z,6.59
2023-02-16T09:02:02.274Z,6.54
2023-02-16T09:03:02.256Z,6.59
2023-02-16T09:04:02.275Z,6.70
2023-02-16T09:05:02.304Z,6.55
2023-02-16T09:06:02.655Z,6.74
2023-02-16T09:07:02.339Z,6.81
2023-02-16T09:08:02.360Z,6.79
2023-02-16T09:09:02.369Z,6.91
2023-02-16T09:10:02.402Z,6.92
2023-02-16T09:11:02.743Z,6.95
2023-02-16T09:12:02.443Z,6.97
2023-02-16T09:13:02.448Z,6.92
2023-02-16T09:14:02.467Z,6.99
2023-02-16T09:15:02.491Z,7.12
2023-02-16T09:16:02.820Z,7.13
2023-02-16T09:17:02.595Z,7.16
2023-02-16T09:18:02.549Z,7.15
2023-02-16T09:19:02.570Z,7.21
2023-02-16T09:20:02.586Z,7.27
2023-02-16T09:21:02.608Z,7.27
2023-02-16T09:22:02.629Z,7.21
2023-02-16T09:23:02.651Z,7.25
2023-02-16T09:24:02.672Z,7.30
2023-02-16T09:25:02.694Z,7.42
2023-02-16T09:26:03.116Z,7.46
2023-02-16T09:27:02.727Z,7.45
2023-02-16T09:28:02.752Z,7.52
2023-02-16T09:29:02.769Z,7.48
2023-02-16T09:30:02.793Z,7.55
2023-02-16T09:31:02.957Z,7.50
2023-02-16T09:32:02.864Z,7.60
2023-02-16T09:33:02.851Z,7.74
2023-02-16T09:34:02.867Z,7.68
2023-02-16T09:35:02.891Z,7.80
2023-02-16T09:36:03.363Z,7.83
2023-02-16T09:37:02.935Z,7.74
2023-02-16T09:38:02.960Z,7.85
2023-02-16T09:39:02.971Z,7.80
2023-02-16T09:40:02.993Z,7.82
2023-02-16T09:41:03.013Z,7.92
2023-02-16T09:42:03.039Z,7.93
2023-02-16T09:43:03.058Z,7.97
2023-02-16T09:44:03.075Z,8.05
2023-02-16T09:45:03.094Z,8.18
2023-02-16T09:46:03.611Z,8.36
2023-02-16T09:47:03.136Z,8.43
2023-02-16T09:48:03.164Z,8.48
2023-02-16T09:49:03.181Z,8.55
2023-02-16T09:50:03.203Z,8.45
2023-02-16T09:51:03.225Z,8.48
2023-02-16T09:52:03.240Z,8.53
2023-02-16T09:53:03.262Z,8.63
2023-02-16T09:54:03.293Z,8.53
2023-02-16T09:55:03.304Z,8.71
2023-02-16T09:56:03.596Z,8.65
2023-02-16T09:57:03.346Z,8.77
2023-02-16T09:58:03.371Z,8.65
2023-02-16T09:59:03.404Z,8.68
2023-02-16T10:00:03.412Z,8.65
2023-02-16T10:01:03.465Z,8.66
2023-02-16T10:02:03.456Z,8.65
2023-02-16T10:03:03.475Z,8.62
2023-02-16T10:04:03.492Z,8.79
2023-02-16T10:05:03.521Z,8.77
2023-02-16T10:06:03.842Z,8.87
2023-02-16T10:07:03.558Z,8.86
2023-02-16T10:08:03.582Z,8.95
2023-02-16T10:09:03.598Z,9.05
2023-02-16T10:10:03.620Z,9.10
2023-02-16T10:11:03.965Z,9.14
2023-02-16T10:12:03.663Z,9.18
2023-02-16T10:13:03.697Z,9.32
2023-02-16T10:14:03.705Z,9.39
2023-02-16T10:15:03.732Z,9.48
2023-02-16T10:16:03.785Z,9.56
2023-02-16T10:17:03.771Z,9.58
2023-02-16T10:18:03.791Z,9.58
2023-02-16T10:19:03.812Z,9.68
2023-02-16T10:20:03.834Z,9.81
2023-02-16T10:21:04.277Z,9.90
2023-02-16T10:22:03.877Z,9.93
2023-02-16T10:23:03.900Z,10.04
2023-02-16T10:24:03.922Z,9.97
2023-02-16T10:25:03.937Z,10.07
2023-02-16T10:26:03.964Z,10.22
2023-02-16T10:27:03.986Z,10.26
2023-02-16T10:28:04.020Z,10.32
2023-02-16T10:29:04.028Z,10.45
2023-02-16T10:30:04.160Z,10.52
2023-02-16T10:31:04.553Z,10.56
2023-02-16T10:32:04.173Z,10.61
2023-02-16T10:33:04.134Z,10.63
2023-02-16T10:34:04.140Z,10.66
2023-02-16T10:35:04.164Z,10.76
2023-02-16T10:36:04.191Z,10.81
2023-02-16T10:37:04.214Z,10.92
2023-02-16T10:38:04.233Z,10.89
2023-02-16T10:39:04.269Z,10.94
2023-02-16T10:40:04.281Z,11.02
2023-02-16T10:41:04.584Z,11.07
2023-02-16T10:42:04.323Z,11.11
2023-02-16T10:43:04.359Z,11.21
2023-02-16T10:44:04.379Z,11.25
2023-02-16T10:45:04.388Z,11.37
2023-02-16T10:46:04.432Z,11.36
2023-02-16T10:47:04.450Z,11.33
2023-02-16T10:48:04.475Z,11.27
2023-02-16T10:49:04.477Z,11.25
2023-02-16T10:50:04.502Z,11.33
2023-02-16T10:51:04.783Z,11.36
2023-02-16T10:52:04.564Z,11.36
2023-02-16T10:53:04.573Z,11.35
2023-02-16T10:54:04.592Z,11.37
2023-02-16T10:55:04.614Z,11.46
2023-02-16T10:56:04.638Z,11.49
2023-02-16T10:57:04.664Z,11.42
2023-02-16T10:58:04.693Z,11.54
2023-02-16T10:59:04.706Z,11.42
2023-02-16T11:00:04.730Z,11.37
2023-02-16T11:01:05.070Z,11.44
2023-02-16T11:02:04.778Z,11.51
2023-02-16T11:03:04.796Z,11.49
2023-02-16T11:04:04.864Z,11.49
2023-02-16T11:05:04.908Z,11.55
2023-02-16T11:06:05.180Z,11.58
2023-02-16T11:07:04.888Z,11.47
2023-02-16T11:08:04.909Z,11.54
2023-02-16T11:09:04.933Z,11.58
2023-02-16T11:10:05.033Z,11.61
2023-02-16T11:11:05.360Z,11.61
2023-02-16T11:12:05.002Z,11.58
2023-02-16T11:13:05.023Z,11.57
2023-02-16T11:14:06.403Z,11.58
2023-02-16T11:15:05.066Z,11.61
2023-02-16T11:16:05.214Z,11.58
2023-02-16T11:17:05.127Z,11.61
2023-02-16T11:18:05.134Z,11.58
2023-02-16T11:19:05.162Z,11.49
2023-02-16T11:20:05.190Z,11.55
2023-02-16T11:21:05.453Z,11.55
2023-02-16T11:22:05.226Z,11.49
2023-02-16T11:23:05.257Z,11.55
2023-02-16T11:24:05.288Z,11.58
2023-02-16T11:25:05.293Z,11.64
2023-02-16T11:26:05.317Z,11.76
2023-02-16T11:27:05.341Z,11.73
2023-02-16T11:28:05.370Z,11.76
2023-02-16T11:29:05.385Z,11.73
2023-02-16T11:30:05.442Z,11.76
2023-02-16T11:31:05.783Z,11.78
2023-02-16T11:32:05.463Z,11.75
2023-02-16T11:33:05.480Z,11.73
2023-02-16T11:34:06.244Z,11.82
2023-02-16T11:35:05.523Z,11.82
2023-02-16T11:36:05.552Z,11.83
2023-02-16T11:37:05.568Z,11.85
2023-02-16T11:38:05.593Z,11.86
2023-02-16T11:39:05.615Z,11.80
2023-02-16T11:40:05.638Z,11.98
2023-02-16T11:41:06.008Z,11.98
2023-02-16T11:42:05.680Z,11.86
2023-02-16T11:43:05.704Z,11.95
2023-02-16T11:44:05.723Z,11.95
2023-02-16T11:45:05.747Z,12.01
2023-02-16T11:46:06.046Z,11.88
2023-02-16T11:47:05.788Z,11.94
2023-02-16T11:48:05.817Z,11.94
2023-02-16T11:49:05.834Z,11.98
2023-02-16T11:50:05.858Z,11.95
2023-02-16T11:51:06.296Z,12.07
2023-02-16T11:52:05.901Z,12.05
2023-02-16T11:53:05.924Z,12.05
2023-02-16T11:54:05.954Z,11.99
2023-02-16T11:55:05.977Z,12.10
2023-02-16T11:56:06.185Z,12.13
2023-02-16T11:57:06.015Z,12.10
2023-02-16T11:58:06.040Z,12.16
2023-02-16T11:59:06.062Z,12.19
2023-02-16T12:00:06.090Z,12.13
2023-02-16T12:01:06.333Z,12.27
2023-02-16T12:02:06.131Z,12.10
2023-02-16T12:03:06.175Z,12.20
2023-02-16T12:04:06.227Z,12.34
2023-02-16T12:05:06.239Z,12.29
2023-02-16T12:06:06.220Z,12.27
2023-02-16T12:07:06.259Z,12.41
2023-02-16T12:08:06.292Z,12.39
2023-02-16T12:09:06.321Z,12.41
2023-02-16T12:10:06.317Z,12.46
2023-02-16T12:11:06.623Z,12.35
2023-02-16T12:12:06.369Z,12.46
2023-02-16T12:13:06.390Z,12.57
2023-02-16T12:14:06.416Z,12.42
2023-02-16T12:15:06.434Z,12.39
2023-02-16T12:16:08.714Z,12.46
2023-02-16T12:17:06.478Z,12.52
2023-02-16T12:18:06.502Z,12.54
2023-02-16T12:19:06.524Z,12.52
2023-02-16T12:20:06.551Z,12.50
2023-02-16T12:21:06.574Z,12.50
2023-02-16T12:22:06.592Z,12.57
2023-02-16T12:23:06.636Z,12.56
2023-02-16T12:24:06.676Z,12.57
2023-02-16T12:25:06.666Z,12.62
2023-02-16T12:26:07.042Z,12.64
2023-02-16T12:27:06.718Z,12.62
2023-02-16T12:28:06.734Z,12.50
2023-02-16T12:29:06.767Z,12.56
2023-02-16T12:30:06.840Z,12.56
2023-02-16T12:31:06.822Z,12.71
2023-02-16T12:32:06.900Z,12.56
2023-02-16T12:33:06.852Z,12.64
2023-02-16T12:34:06.874Z,12.60
2023-02-16T12:35:06.896Z,12.56
2023-02-16T12:36:07.208Z,12.59
2023-02-16T12:37:06.941Z,12.59
2023-02-16T12:38:06.975Z,12.56
2023-02-16T12:39:14.169Z,12.60
2023-02-16T12:41:00.859Z,12.60
2023-02-16T12:41:59.963Z,12.60
2023-02-16T12:44:03.980Z,12.47
2023-02-16T12:45:03.994Z,12.49
2023-02-16T12:47:08.494Z,12.42
2023-02-16T12:48:08.026Z,12.41
2023-02-16T12:50:00.958Z,12.29
2023-02-16T12:51:00.969Z,12.29
2023-02-16T12:53:05.460Z,12.20
2023-02-16T12:54:04.987Z,12.21
2023-02-16T12:56:09.002Z,12.09
2023-02-16T12:57:09.016Z,11.99
2023-02-16T12:59:13.523Z,11.95
2023-02-16T13:00:13.033Z,11.90
2023-02-16T13:02:17.038Z,11.85
2023-02-16T13:03:17.126Z,11.99
2023-02-16T13:04:17.075Z,11.85
2023-02-16T13:05:17.095Z,11.85
2023-02-16T13:06:17.122Z,11.91
2023-02-16T13:07:17.152Z,11.90
2023-02-16T13:08:17.184Z,11.86
2023-02-16T13:09:17.192Z,11.83
2023-02-16T13:10:17.216Z,11.72
2023-02-16T13:11:17.266Z,11.72
2023-02-16T13:12:17.268Z,11.73
2023-02-16T13:13:17.294Z,11.64
2023-02-16T13:14:17.314Z,11.69
2023-02-16T13:15:17.360Z,11.62
2023-02-16T13:16:29.021Z,11.62
2023-02-16T13:17:17.551Z,11.65
2023-02-16T13:18:17.407Z,11.61
2023-02-16T13:19:17.441Z,11.64
2023-02-16T13:20:17.455Z,11.69
2023-02-16T13:21:17.467Z,11.73
2023-02-16T13:22:17.501Z,11.73
2023-02-16T13:23:17.510Z,11.70
2023-02-16T13:24:17.544Z,11.73
2023-02-16T13:25:18.190Z,11.76
2023-02-16T13:26:17.612Z,11.73
2023-02-16T13:27:17.605Z,11.75
2023-02-16T13:28:17.675Z,11.70
2023-02-16T13:29:17.714Z,11.76
2023-02-16T13:30:17.715Z,11.83
2023-02-16T13:31:17.786Z,11.94
2023-02-16T13:32:19.240Z,11.86
2023-02-16T13:33:17.740Z,11.86
2023-02-16T13:34:17.780Z,11.91
2023-02-16T13:35:17.784Z,11.99
2023-02-16T13:36:17.812Z,11.96
2023-02-16T13:37:17.848Z,11.88
2023-02-16T13:38:17.868Z,11.98
2023-02-16T13:39:17.878Z,11.99
2023-02-16T13:40:17.904Z,12.04
2023-02-16T13:41:17.951Z,12.02
2023-02-16T13:42:17.962Z,12.01
2023-02-16T13:43:17.974Z,12.10
2023-02-16T13:44:18.003Z,12.02